createdAt,value
2023-04-28T00:01:12.638Z,2.37
2023-04-28T00:03:39.746Z,2.34
2023-04-28T00:06:06.427Z,2.31
2023-04-28T00:08:33.341Z,2.23
2023-04-28T00:11:00.807Z,2.22
2023-04-28T00:13:27.447Z,2.24
2023-04-28T00:15:54.484Z,2.24
2023-04-28T00:18:21.675Z,2.25
2023-04-28T00:20:48.658Z,2.22
2023-04-28T00:23:16.002Z,2.13
2023-04-28T00:25:42.593Z,2.13
2023-04-28T00:28:09.257Z,2.05
2023-04-28T00:30:35.876Z,2.03
2023-04-28T00:33:02.699Z,1.95
2023-04-28T00:35:29.397Z,1.82
2023-04-28T00:37:55.955Z,1.74
2023-04-28T00:40:22.591Z,1.65
2023-04-28T00:42:49.137Z,1.54
2023-04-28T00:45:15.768Z,1.54
2023-04-28T00:47:42.654Z,1.54
2023-04-28T00:50:10.670Z,1.50
2023-04-28T00:52:39.453Z,1.50
2023-04-28T00:55:07.744Z,1.42
2023-04-28T00:57:34.392Z,1.39
2023-04-28T01:00:01.454Z,1.38
2023-04-28T01:02:30.115Z,1.38
2023-04-28T01:04:57.384Z,1.36
2023-04-28T01:07:23.970Z,1.22
2023-04-28T01:09:51.311Z,1.15
2023-04-28T01:12:17.930Z,1.16
2023-04-28T01:14:45.272Z,1.09
2023-04-28T01:17:12.561Z,1.05
2023-04-28T01:19:39.153Z,1.06
2023-04-28T01:22:05.716Z,1.13
2023-04-28T01:24:32.470Z,1.15
2023-04-28T01:26:59.024Z,1.15
2023-04-28T01:29:25.676Z,1.20
2023-04-28T01:31:52.352Z,1.20
2023-04-28T01:34:18.997Z,1.26
2023-04-28T01:36:46.124Z,1.30
2023-04-28T01:39:12.734Z,1.30
2023-04-28T01:41:39.318Z,1.32
2023-04-28T01:44:07.671Z,1.30
2023-04-28T01:46:34.776Z,1.29
2023-04-28T01:49:01.500Z,1.21
2023-04-28T01:51:28.087Z,1.13
2023-04-28T01:53:54.707Z,1.13
2023-04-28T01:56:21.355Z,1.08
2023-04-28T01:58:47.953Z,1.01
2023-04-28T02:01:14.610Z,0.98
2023-04-28T02:03:41.396Z,0.97
2023-04-28T02:06:08.112Z,0.98
2023-04-28T02:08:34.689Z,0.97
2023-04-28T02:11:01.792Z,0.93
2023-04-28T02:13:28.461Z,0.91
2023-04-28T02:15:55.109Z,0.91
2023-04-28T02:18:21.812Z,0.83
2023-04-28T02:20:48.401Z,0.82
2023-04-28T02:23:14.975Z,0.77
2023-04-28T02:25:41.553Z,0.74
2023-04-28T02:28:08.109Z,0.75
2023-04-28T02:30:34.737Z,0.70
2023-04-28T02:33:01.374Z,0.68
2023-04-28T02:35:28.345Z,0.68
2023-04-28T02:37:54.890Z,0.68
2023-04-28T02:40:21.552Z,0.69
2023-04-28T02:42:48.090Z,0.67
2023-04-28T02:45:14.767Z,0.60
2023-04-28T02:47:41.951Z,0.60
2023-04-28T02:50:09.139Z,0.59
2023-04-28T02:52:35.840Z,0.55
2023-04-28T02:55:03.839Z,0.48
2023-04-28T02:57:30.754Z,0.50
2023-04-28T02:59:57.406Z,0.46
2023-04-28T03:02:24.067Z,0.48
2023-04-28T03:04:50.799Z,0.51
2023-04-28T03:07:17.416Z,0.52
2023-04-28T03:09:46.071Z,0.52
2023-04-28T03:12:12.673Z,0.52
2023-04-28T03:14:39.214Z,0.52
2023-04-28T03:17:05.752Z,0.53
2023-04-28T03:19:33.416Z,0.50
2023-04-28T03:21:59.943Z,0.51
2023-04-28T03:24:26.780Z,0.47
2023-04-28T03:26:53.498Z,0.44
2023-04-28T03:29:20.109Z,0.47
2023-04-28T03:31:46.712Z,0.46
2023-04-28T03:34:13.485Z,0.46
2023-04-28T03:36:40.111Z,0.44
2023-04-28T03:39:06.668Z,0.48
2023-04-28T03:41:33.187Z,0.47
2023-04-28T03:43:59.799Z,0.45
2023-04-28T03:46:26.483Z,0.44
2023-04-28T03:48:53.680Z,0.47
2023-04-28T03:51:20.291Z,0.39
2023-04-28T03:53:46.895Z,0.35
2023-04-28T03:56:13.514Z,0.32
2023-04-28T03:58:40.104Z,0.33
2023-04-28T04:01:06.688Z,0.29
2023-04-28T04:03:33.439Z,0.28
2023-04-28T04:06:00.547Z,0.33
2023-04-28T04:08:27.165Z,0.39
2023-04-28T04:10:54.967Z,0.39
2023-04-28T04:13:22.465Z,0.41
2023-04-28T04:15:50.452Z,0.49
2023-04-28T04:18:17.067Z,0.56
2023-04-28T04:20:43.764Z,0.63
2023-04-28T04:23:10.322Z,0.69
2023-04-28T04:25:36.945Z,0.75
2023-04-28T04:28:03.715Z,0.82
2023-04-28T04:30:30.294Z,0.92
2023-04-28T04:32:56.955Z,1.02
2023-04-28T04:35:25.899Z,1.12
2023-04-28T04:37:52.435Z,1.23
2023-04-28T04:40:19.221Z,1.36
2023-04-28T04:42:45.865Z,1.47
2023-04-28T04:45:12.457Z,1.57
2023-04-28T04:47:39.254Z,1.68
2023-04-28T04:50:06.721Z,1.83
2023-04-28T04:52:33.443Z,1.96
2023-04-28T04:55:00.187Z,2.10
2023-04-28T04:57:27.295Z,2.24
2023-04-28T04:59:53.907Z,2.39
2023-04-28T05:02:20.629Z,2.53
2023-04-28T05:04:47.391Z,2.70
2023-04-28T05:07:14.355Z,2.85
2023-04-28T05:09:40.912Z,3.00
2023-04-28T05:12:07.684Z,3.17
2023-04-28T05:14:34.285Z,3.33
2023-04-28T05:17:00.894Z,3.49
2023-04-28T05:19:27.560Z,3.66
2023-04-28T05:21:54.940Z,3.88
2023-04-28T05:24:23.710Z,4.07
2023-04-28T05:26:51.813Z,4.30
2023-04-28T05:29:18.562Z,4.52
2023-04-28T05:31:45.347Z,4.73
2023-04-28T05:34:12.013Z,4.95
2023-04-28T05:36:38.592Z,5.19
2023-04-28T05:39:05.577Z,5.39
2023-04-28T05:41:32.134Z,5.56
2023-04-28T05:43:58.737Z,5.78
2023-04-28T05:46:30.573Z,5.97
2023-04-28T05:48:58.037Z,6.15
2023-04-28T05:51:24.694Z,6.34
2023-04-28T05:53:52.593Z,6.51
2023-04-28T05:56:19.277Z,6.63
2023-04-28T05:58:47.214Z,6.74
2023-04-28T06:01:13.806Z,6.90
2023-04-28T06:03:41.897Z,7.11
2023-04-28T06:06:11.978Z,7.35
2023-04-28T06:08:39.012Z,7.52
2023-04-28T06:11:06.160Z,7.68
2023-04-28T06:13:33.051Z,7.84
2023-04-28T06:15:59.726Z,8.00
2023-04-28T06:18:27.082Z,8.11
2023-04-28T06:20:53.761Z,8.22
2023-04-28T06:23:20.340Z,8.35
2023-04-28T06:25:47.026Z,8.46
2023-04-28T06:28:14.975Z,8.56
2023-04-28T06:30:41.852Z,8.71
2023-04-28T06:33:09.075Z,8.82
2023-04-28T06:35:36.627Z,8.92
2023-04-28T06:38:04.634Z,9.04
2023-04-28T06:40:31.814Z,9.15
2023-04-28T06:42:58.395Z,9.31
2023-04-28T06:45:25.220Z,9.42
2023-04-28T06:47:52.490Z,9.57
2023-04-28T06:50:19.113Z,9.65
2023-04-28T06:52:45.704Z,9.80
2023-04-28T06:55:16.784Z,9.89
2023-04-28T06:57:43.855Z,9.99
2023-04-28T07:00:11.398Z,10.10
2023-04-28T07:02:38.247Z,10.24
2023-04-28T07:05:05.458Z,10.39
2023-04-28T07:07:32.289Z,10.47
2023-04-28T07:09:59.140Z,10.63
2023-04-28T07:12:25.885Z,10.81
2023-04-28T07:14:52.524Z,10.94
2023-04-28T07:17:19.386Z,11.09
2023-04-28T07:19:45.947Z,11.20
2023-04-28T07:22:12.683Z,11.35
2023-04-28T07:24:39.475Z,11.48
2023-04-28T07:27:06.225Z,11.54
2023-04-28T07:29:35.049Z,11.57
2023-04-28T07:32:06.839Z,11.71
2023-04-28T07:34:35.816Z,11.86
2023-04-28T07:37:03.582Z,11.98
2023-04-28T07:39:32.033Z,12.12
2023-04-28T07:41:59.239Z,12.19
2023-04-28T07:44:25.915Z,12.26
2023-04-28T07:46:53.697Z,12.43
2023-04-28T07:49:20.475Z,12.53
2023-04-28T07:51:47.316Z,12.48
2023-04-28T07:54:13.895Z,12.49
2023-04-28T07:56:40.495Z,12.61
2023-04-28T07:59:07.032Z,12.80
2023-04-28T08:01:33.689Z,12.94
2023-04-28T08:04:00.612Z,13.12
2023-04-28T08:06:27.751Z,13.32
2023-04-28T08:08:55.797Z,13.46
2023-04-28T08:11:22.824Z,13.51
2023-04-28T08:13:49.555Z,13.52
2023-04-28T08:16:16.870Z,13.61
2023-04-28T08:18:44.415Z,13.70
2023-04-28T08:21:11.117Z,13.79
2023-04-28T08:23:37.757Z,13.77
2023-04-28T08:26:04.552Z,13.89
2023-04-28T08:28:31.372Z,14.09
2023-04-28T08:30:58.618Z,14.19
2023-04-28T08:33:25.204Z,14.38
2023-04-28T08:35:51.841Z,14.53
2023-04-28T08:38:18.493Z,14.74
2023-04-28T08:40:45.497Z,14.83
2023-04-28T08:43:12.207Z,14.84
2023-04-28T08:45:44.444Z,14.85
2023-04-28T08:48:22.356Z,14.90
2023-04-28T08:50:51.390Z,14.90
2023-04-28T08:53:25.456Z,14.82
2023-04-28T08:55:57.080Z,14.90
2023-04-28T08:58:24.920Z,14.79
2023-04-28T09:00:54.938Z,14.83
2023-04-28T09:03:22.197Z,14.90
2023-04-28T09:05:49.351Z,15.02
2023-04-28T09:08:16.115Z,15.24
2023-04-28T09:10:42.864Z,15.24
2023-04-28T09:13:09.690Z,15.38
2023-04-28T09:15:39.309Z,15.46
2023-04-28T09:18:08.101Z,15.55
2023-04-28T09:20:37.241Z,15.67
2023-04-28T09:23:15.988Z,15.87
2023-04-28T09:26:05.698Z,15.91
2023-04-28T09:28:33.964Z,15.99
2023-04-28T09:31:01.189Z,15.94
2023-04-28T09:33:28.004Z,15.96
2023-04-28T09:35:55.049Z,15.96
2023-04-28T09:38:23.229Z,15.88
2023-04-28T09:40:56.829Z,16.10
2023-04-28T09:43:31.352Z,16.43
2023-04-28T09:46:01.486Z,16.56
2023-04-28T09:48:29.313Z,16.67
2023-04-28T09:50:56.780Z,16.53
2023-04-28T09:53:24.754Z,16.62
2023-04-28T09:55:53.937Z,16.73
2023-04-28T09:58:21.979Z,16.68
2023-04-28T10:00:56.658Z,16.57
2023-04-28T10:03:28.523Z,16.48
2023-04-28T10:05:58.275Z,16.67
2023-04-28T10:08:27.445Z,16.77
2023-04-28T10:10:55.511Z,17.13
2023-04-28T10:13:23.289Z,17.47
2023-04-28T10:15:51.276Z,17.40
2023-04-28T10:18:18.553Z,17.16
2023-04-28T10:20:48.662Z,17.36
2023-04-28T10:23:53.881Z,17.54
2023-04-28T10:26:22.047Z,17.71
2023-04-28T10:28:50.726Z,17.61
2023-04-28T10:31:20.770Z,17.56
2023-04-28T10:33:47.933Z,17.77
2023-04-28T10:36:46.932Z,17.61
2023-04-28T10:39:14.310Z,17.48
2023-04-28T10:41:41.789Z,17.33
2023-04-28T10:44:29.962Z,17.25
2023-04-28T10:47:10.909Z,17.49
2023-04-28T10:49:57.751Z,17.83
2023-04-28T10:52:33.563Z,17.83
2023-04-28T10:55:28.959Z,17.51
2023-04-28T10:58:15.538Z,17.37
2023-04-28T11:00:47.805Z,17.53
2023-04-28T11:03:49.323Z,17.90
2023-04-28T11:06:29.246Z,18.04
2023-04-28T11:09:15.248Z,18.00
2023-04-28T11:12:11.284Z,18.09
2023-04-28T11:14:40.611Z,18.04
2023-04-28T11:17:09.733Z,17.71
2023-04-28T11:19:37.717Z,17.57
2023-04-28T11:22:11.765Z,17.27
2023-04-28T11:24:38.472Z,17.20
2023-04-28T11:27:05.272Z,17.11
2023-04-28T11:29:33.405Z,17.01
2023-04-28T11:32:00.381Z,16.98
2023-04-28T11:34:27.044Z,16.92
2023-04-28T11:36:54.901Z,17.02
2023-04-28T11:39:32.819Z,16.83
2023-04-28T11:42:02.441Z,16.58
2023-04-28T11:44:31.224Z,16.50
2023-04-28T11:47:03.248Z,16.69
2023-04-28T11:49:44.650Z,16.88
2023-04-28T11:52:12.162Z,16.87
2023-04-28T11:54:38.957Z,17.00
2023-04-28T11:57:06.638Z,16.95
2023-04-28T11:59:35.005Z,17.03
2023-04-28T12:02:04.740Z,17.09
2023-04-28T12:04:39.360Z,17.03
2023-04-28T12:07:14.167Z,17.11
2023-04-28T12:09:46.249Z,16.94
2023-04-28T12:12:39.963Z,16.99
2023-04-28T12:15:12.587Z,16.86
2023-04-28T12:17:41.472Z,16.91
2023-04-28T12:20:11.983Z,17.00
2023-04-28T12:22:51.332Z,16.96
2023-04-28T12:25:19.656Z,16.91
2023-04-28T12:28:02.719Z,17.02
2023-04-28T12:30:34.523Z,17.06
2023-04-28T12:33:01.177Z,16.96
2023-04-28T12:35:29.051Z,16.90
2023-04-28T12:37:56.874Z,16.94
2023-04-28T12:40:24.565Z,17.12
2023-04-28T12:42:51.589Z,17.22
2023-04-28T12:45:18.633Z,17.29
2023-04-28T12:47:45.273Z,17.39
2023-04-28T12:50:12.330Z,17.50
2023-04-28T12:52:38.925Z,17.72
2023-04-28T12:55:06.077Z,17.95
2023-04-28T12:57:32.709Z,18.09
2023-04-28T12:59:59.320Z,18.10
2023-04-28T13:02:26.091Z,18.14
2023-04-28T13:04:53.560Z,18.19
2023-04-28T13:07:20.460Z,18.39
2023-04-28T13:09:47.794Z,18.36
2023-04-28T13:12:14.936Z,18.18
2023-04-28T13:14:41.964Z,18.24
2023-04-28T13:17:09.217Z,18.40
2023-04-28T13:19:36.114Z,18.78
2023-04-28T13:22:05.263Z,19.07
2023-04-28T13:24:33.538Z,19.02
2023-04-28T13:27:00.427Z,19.12
2023-04-28T13:29:27.008Z,19.09
2023-04-28T13:31:53.620Z,19.19
2023-04-28T13:34:20.668Z,18.81
2023-04-28T13:36:50.702Z,18.51
2023-04-28T13:39:20.210Z,18.28
2023-04-28T13:41:47.003Z,18.21
2023-04-28T13:44:13.841Z,18.07
2023-04-28T13:46:40.504Z,18.14
2023-04-28T13:49:07.882Z,18.01
2023-04-28T13:51:34.450Z,18.11
2023-04-28T13:54:04.399Z,18.18
2023-04-28T13:56:32.177Z,18.24
2023-04-28T13:58:58.971Z,18.47
2023-04-28T14:01:25.751Z,18.81
2023-04-28T14:03:52.617Z,19.54
2023-04-28T14:06:19.728Z,20.09
2023-04-28T14:08:46.410Z,20.24
2023-04-28T14:11:12.996Z,20.58
2023-04-28T14:13:39.631Z,20.61
2023-04-28T14:16:07.219Z,20.51
2023-04-28T14:18:34.422Z,20.25
2023-04-28T14:21:02.303Z,20.38
2023-04-28T14:23:29.852Z,20.55
2023-04-28T14:25:58.056Z,20.68
2023-04-28T14:28:24.839Z,20.47
2023-04-28T14:30:54.339Z,20.08
2023-04-28T14:33:21.222Z,19.93
2023-04-28T14:35:48.125Z,19.95
2023-04-28T14:38:14.844Z,19.81
2023-04-28T14:40:43.047Z,19.89
2023-04-28T14:43:09.661Z,20.06
2023-04-28T14:45:38.145Z,20.24
2023-04-28T14:48:06.780Z,20.29
2023-04-28T14:50:33.711Z,20.26
2023-04-28T14:53:05.406Z,20.03
2023-04-28T14:55:32.800Z,19.94
2023-04-28T14:57:59.492Z,19.83
2023-04-28T15:00:26.113Z,19.80
2023-04-28T15:02:53.253Z,19.80
2023-04-28T15:05:20.015Z,19.60
2023-04-28T15:07:46.697Z,19.42
2023-04-28T15:10:13.259Z,19.31
2023-04-28T15:12:40.082Z,19.33
2023-04-28T15:15:07.720Z,19.14
2023-04-28T15:17:34.625Z,19.10
2023-04-28T15:20:01.763Z,19.08
2023-04-28T15:22:28.326Z,18.83
2023-04-28T15:24:56.043Z,18.59
2023-04-28T15:27:23.257Z,18.40
2023-04-28T15:29:50.474Z,18.29
2023-04-28T15:32:17.057Z,18.20
2023-04-28T15:34:44.237Z,18.07
2023-04-28T15:37:38.533Z,17.88
2023-04-28T15:40:05.898Z,17.74
2023-04-28T15:42:32.876Z,17.44
2023-04-28T15:44:59.789Z,17.28
2023-04-28T15:47:26.341Z,17.04
2023-04-28T15:49:52.963Z,17.08
2023-04-28T15:52:19.698Z,16.87
2023-04-28T15:54:46.577Z,16.82
2023-04-28T15:57:13.156Z,16.84
2023-04-28T15:59:41.149Z,16.77
2023-04-28T16:02:08.211Z,16.77
2023-04-28T16:04:35.047Z,16.70
2023-04-28T16:07:02.506Z,16.64
2023-04-28T16:09:29.633Z,16.54
2023-04-28T16:11:59.396Z,16.48
2023-04-28T16:14:26.951Z,16.35
2023-04-28T16:16:53.958Z,16.26
2023-04-28T16:19:21.686Z,16.29
2023-04-28T16:21:48.339Z,16.33
2023-04-28T16:24:14.911Z,16.28
2023-04-28T16:26:41.592Z,16.20
2023-04-28T16:29:08.163Z,16.22
2023-04-28T16:31:34.864Z,16.23
2023-04-28T16:34:01.462Z,16.24
2023-04-28T16:36:32.974Z,16.17
2023-04-28T16:38:59.720Z,16.20
2023-04-28T16:41:26.396Z,16.16
2023-04-28T16:43:52.961Z,16.17
2023-04-28T16:46:19.542Z,16.15
2023-04-28T16:48:46.141Z,16.12
2023-04-28T16:51:12.741Z,16.03
2023-04-28T16:53:39.312Z,16.00
2023-04-28T16:56:08.299Z,15.91
2023-04-28T16:58:36.603Z,15.82
2023-04-28T17:01:03.273Z,15.82
2023-04-28T17:03:29.963Z,15.79
2023-04-28T17:05:56.808Z,15.76
2023-04-28T17:08:23.376Z,15.75
2023-04-28T17:10:49.922Z,15.69
2023-04-28T17:13:16.726Z,15.64
2023-04-28T17:15:43.390Z,15.62
2023-04-28T17:18:09.938Z,15.53
2023-04-28T17:20:38.212Z,15.44
2023-04-28T17:23:04.793Z,15.42
2023-04-28T17:25:31.362Z,15.40
2023-04-28T17:27:59.639Z,15.37
2023-04-28T17:30:26.413Z,15.34
2023-04-28T17:32:53.030Z,15.27
2023-04-28T17:35:19.741Z,15.15
2023-04-28T17:37:46.325Z,15.03
2023-04-28T17:40:13.294Z,14.94
2023-04-28T17:42:40.002Z,14.93
2023-04-28T17:45:07.594Z,14.94
2023-04-28T17:47:34.497Z,14.85
2023-04-28T17:50:01.914Z,14.90
2023-04-28T17:52:28.806Z,14.94
2023-04-28T17:54:56.412Z,14.93
2023-04-28T17:57:22.936Z,14.87
2023-04-28T17:59:50.408Z,14.83
2023-04-28T18:02:18.481Z,14.82
2023-04-28T18:04:45.375Z,14.81
2023-04-28T18:07:12.156Z,14.74
2023-04-28T18:09:38.732Z,14.69
2023-04-28T18:12:05.627Z,14.57
2023-04-28T18:14:32.280Z,14.52
2023-04-28T18:16:59.240Z,14.49
2023-04-28T18:19:28.224Z,14.53
2023-04-28T18:21:56.875Z,14.48
2023-04-28T18:24:24.255Z,14.49
2023-04-28T18:26:50.873Z,14.49
2023-04-28T18:29:18.869Z,14.40
2023-04-28T18:31:46.257Z,14.31
2023-04-28T18:34:13.318Z,14.23
2023-04-28T18:36:40.097Z,14.17
2023-04-28T18:39:08.723Z,14.01
2023-04-28T18:41:36.476Z,13.92
2023-04-28T18:44:03.325Z,13.93
2023-04-28T18:46:30.206Z,13.92
2023-04-28T18:48:56.934Z,13.86
2023-04-28T18:51:23.638Z,13.79
2023-04-28T18:53:50.340Z,13.77
2023-04-28T18:56:17.294Z,13.72
2023-04-28T18:58:47.305Z,13.69
2023-04-28T19:01:15.395Z,13.61
2023-04-28T19:03:42.486Z,13.50
2023-04-28T19:06:09.376Z,13.36
2023-04-28T19:08:39.175Z,13.35
2023-04-28T19:11:09.595Z,13.22
2023-04-28T19:13:36.984Z,13.20
2023-04-28T19:16:04.781Z,13.12
2023-04-28T19:18:32.358Z,13.09
2023-04-28T19:21:03.056Z,13.07
2023-04-28T19:23:30.881Z,13.00
2023-04-28T19:25:58.982Z,13.00
2023-04-28T19:28:26.304Z,12.94
2023-04-28T19:30:59.348Z,12.86
2023-04-28T19:33:28.442Z,12.68
2023-04-28T19:35:55.413Z,12.58
2023-04-28T19:38:23.355Z,12.51
2023-04-28T19:40:53.695Z,12.53
2023-04-28T19:43:20.267Z,12.48
2023-04-28T19:45:47.124Z,12.46
2023-04-28T19:48:14.540Z,12.46
2023-04-28T19:50:42.261Z,12.38
2023-04-28T19:53:09.445Z,12.34
2023-04-28T19:55:36.515Z,12.24
2023-04-28T19:58:03.999Z,12.16
2023-04-28T20:00:32.488Z,12.09
2023-04-28T20:02:59.841Z,12.08
2023-04-28T20:05:26.841Z,12.13
2023-04-28T20:07:55.951Z,12.14
2023-04-28T20:10:23.716Z,12.18
2023-04-28T20:12:50.423Z,12.12
2023-04-28T20:15:18.512Z,12.08
2023-04-28T20:17:46.060Z,12.05
2023-04-28T20:20:12.974Z,12.02
2023-04-28T20:22:41.078Z,11.95
2023-04-28T20:25:10.490Z,11.92
2023-04-28T20:27:37.702Z,11.93
2023-04-28T20:30:04.907Z,11.87
2023-04-28T20:32:31.711Z,11.90
2023-04-28T20:34:58.337Z,11.92
2023-04-28T20:37:26.415Z,11.84
2023-04-28T20:39:53.265Z,11.85
2023-04-28T20:42:19.878Z,11.84
2023-04-28T20:44:46.639Z,11.83
2023-04-28T20:47:13.989Z,11.82
2023-04-28T20:49:40.584Z,11.85
2023-04-28T20:52:07.250Z,11.81
2023-04-28T20:54:36.000Z,11.68
2023-04-28T20:57:04.813Z,11.63
2023-04-28T20:59:32.785Z,11.58
2023-04-28T21:02:00.415Z,11.55
2023-04-28T21:04:28.235Z,11.56
2023-04-28T21:06:55.602Z,11.57
2023-04-28T21:09:24.971Z,11.59
2023-04-28T21:11:51.786Z,11.57
2023-04-28T21:14:18.418Z,11.55
2023-04-28T21:16:45.120Z,11.58
2023-04-28T21:19:11.702Z,11.61
2023-04-28T21:21:38.241Z,11.65
2023-04-28T21:24:09.236Z,11.69
2023-04-28T21:26:36.539Z,11.65
2023-04-28T21:29:03.338Z,11.54
2023-04-28T21:31:30.741Z,11.56
2023-04-28T21:33:57.596Z,11.59
2023-04-28T21:36:24.157Z,11.57
2023-04-28T21:38:50.748Z,11.54
2023-04-28T21:41:17.319Z,11.55
2023-04-28T21:43:43.861Z,11.54
2023-04-28T21:46:10.966Z,11.55
2023-04-28T21:48:37.637Z,11.52
2023-04-28T21:51:04.778Z,11.57
2023-04-28T21:53:31.355Z,11.59
2023-04-28T21:55:57.980Z,11.60
2023-04-28T21:58:24.748Z,11.60
2023-04-28T22:00:51.514Z,11.62
2023-04-28T22:03:18.820Z,11.61
2023-04-28T22:05:45.630Z,11.57
2023-04-28T22:08:13.341Z,11.57
2023-04-28T22:10:40.075Z,11.54
2023-04-28T22:13:06.973Z,11.51
2023-04-28T22:15:33.741Z,11.50
2023-04-28T22:18:00.449Z,11.49
2023-04-28T22:20:27.268Z,11.43
2023-04-28T22:22:54.229Z,11.41
2023-04-28T22:25:21.303Z,11.37
2023-04-28T22:27:47.902Z,11.38
2023-04-28T22:30:15.578Z,11.36
2023-04-28T22:32:44.760Z,11.34
2023-04-28T22:35:12.747Z,11.32
2023-04-28T22:37:39.906Z,11.29
2023-04-28T22:40:08.646Z,11.26
2023-04-28T22:42:37.008Z,11.26
2023-04-28T22:45:04.424Z,11.26
2023-04-28T22:47:31.160Z,11.27
2023-04-28T22:49:57.805Z,11.23
2023-04-28T22:52:24.589Z,11.21
2023-04-28T22:54:51.164Z,11.21
2023-04-28T22:57:17.756Z,11.21
2023-04-28T22:59:44.375Z,11.15
2023-04-28T23:02:13.230Z,11.12
2023-04-28T23:04:40.266Z,11.10
2023-04-28T23:07:07.764Z,11.11
2023-04-28T23:09:36.171Z,11.11
2023-04-28T23:12:03.674Z,11.13
2023-04-28T23:14:31.394Z,11.12
2023-04-28T23:16:58.007Z,11.13
2023-04-28T23:19:24.829Z,11.13
2023-04-28T23:21:51.445Z,11.10
2023-04-28T23:24:17.990Z,11.10
2023-04-28T23:26:44.527Z,11.10
2023-04-28T23:29:11.167Z,11.10
2023-04-28T23:31:39.899Z,11.11
2023-04-28T23:34:07.062Z,11.12
2023-04-28T23:36:33.693Z,11.11
2023-04-28T23:39:00.431Z,11.09
2023-04-28T23:41:27.948Z,11.03
2023-04-28T23:43:54.679Z,10.93
2023-04-28T23:46:21.502Z,10.88
2023-04-28T23:48:48.147Z,10.83
2023-04-28T23:51:14.949Z,10.85
2023-04-28T23:53:41.995Z,10.84
2023-04-28T23:56:08.593Z,10.81
2023-04-28T23:58:35.173Z,10.80
